Time;durP1;ratioP1;P1;durP2;ratioP2;P2;SDS_P1;SDS_P2;PMS_P1;PMS_P2;Temp;Humidity;BMP_temperature;BMP_pressure;BME280_temperature;BME280_humidity;BME280_pressure;Samples;Min_cycle;Max_cycle;Signal;HPM_P1;HPM_P2
2024/01/28 00:00:34;;;;;;;23.40;15.05;;;1.20;99.90;;;;;;5038797;27;20053;-73
2024/01/28 00:03:03;;;;;;;25.40;15.90;;;1.20;99.90;;;;;;5043428;27;20033;-73
2024/01/28 00:05:29;;;;;;;23.70;15.90;;;1.20;99.90;;;;;;5037146;27;20075;-74
2024/01/28 00:07:54;;;;;;;25.05;15.70;;;1.10;99.90;;;;;;5047613;27;20072;-74
2024/01/28 00:10:20;;;;;;;25.63;15.82;;;1.10;99.90;;;;;;5037595;27;20620;-74
2024/01/28 00:12:46;;;;;;;21.70;14.73;;;1.10;99.90;;;;;;5038849;27;20038;-74
2024/01/28 00:15:12;;;;;;;22.15;14.93;;;1.10;99.90;;;;;;5038222;27;20053;-74
2024/01/28 00:17:38;;;;;;;25.75;15.43;;;1.10;99.90;;;;;;5039584;27;20041;-74
2024/01/28 00:20:06;;;;;;;24.83;16.20;;;1.10;99.90;;;;;;5023692;27;20041;-74
2024/01/28 00:22:32;;;;;;;25.50;15.98;;;1.00;99.90;;;;;;5023588;27;20055;-74
2024/01/28 00:24:59;;;;;;;30.90;19.00;;;1.00;99.90;;;;;;5036067;27;20036;-74
2024/01/28 00:27:28;;;;;;;25.80;17.60;;;1.10;99.90;;;;;;5041418;27;20935;-74
2024/01/28 00:29:53;;;;;;;31.17;19.08;;;1.10;99.90;;;;;;5040646;27;20041;-74
2024/01/28 00:32:19;;;;;;;30.20;18.67;;;1.10;99.90;;;;;;5036012;27;20041;-75
2024/01/28 00:34:45;;;;;;;29.92;19.40;;;1.10;99.90;;;;;;5047408;27;20044;-74
2024/01/28 00:37:11;;;;;;;27.50;19.60;;;1.20;99.90;;;;;;5020874;27;20055;-78
2024/01/28 00:39:37;;;;;;;24.40;18.13;;;1.20;99.90;;;;;;5027630;27;20685;-74
2024/01/28 00:42:06;;;;;;;31.70;19.00;;;1.30;99.90;;;;;;5039089;27;20094;-74
2024/01/28 00:44:32;;;;;;;30.02;17.48;;;1.30;99.90;;;;;;5035717;27;20108;-74
2024/01/28 00:46:58;;;;;;;27.88;18.08;;;1.30;99.90;;;;;;5036280;27;20124;-74
2024/01/28 00:49:29;;;;;;;28.90;18.73;;;1.30;99.90;;;;;;5036839;27;20570;-74
2024/01/28 00:51:56;;;;;;;33.78;18.65;;;1.40;99.90;;;;;;5023992;28;20424;-74
2024/01/28 00:54:22;;;;;;;31.73;18.80;;;1.40;99.90;;;;;;5023269;28;20517;-74
2024/01/28 00:56:48;;;;;;;24.08;17.52;;;1.40;99.90;;;;;;5025480;28;20045;-74
2024/01/28 00:59:14;;;;;;;28.17;18.25;;;1.50;99.90;;;;;;5038376;27;20448;-74
2024/01/28 01:01:40;;;;;;;28.90;19.23;;;1.40;99.90;;;;;;5021674;27;20045;-78
2024/01/28 01:04:06;;;;;;;23.50;16.75;;;1.50;99.90;;;;;;5118353;27;20108;-78
2024/01/28 01:06:31;;;;;;;24.77;16.90;;;1.50;99.90;;;;;;5028115;28;20041;-78
2024/01/28 01:08:57;;;;;;;31.75;19.33;;;1.60;99.90;;;;;;5021853;28;20124;-78
2024/01/28 01:11:23;;;;;;;32.50;18.25;;;1.50;99.90;;;;;;5038299;27;20065;-78
2024/01/28 01:13:52;;;;;;;27.98;19.65;;;1.50;99.90;;;;;;5049372;27;20030;-78
2024/01/28 01:16:18;;;;;;;28.80;18.75;;;1.50;99.90;;;;;;5035715;27;20079;-78
2024/01/28 01:18:44;;;;;;;26.52;18.35;;;1.50;99.90;;;;;;5025247;28;20068;-74
2024/01/28 01:21:09;;;;;;;28.48;19.00;;;1.50;99.90;;;;;;5040920;27;20386;-78
2024/01/28 01:23:35;;;;;;;24.30;17.15;;;1.50;99.90;;;;;;5039013;27;20041;-77
2024/01/28 01:26:01;;;;;;;28.25;16.67;;;1.40;99.90;;;;;;5022872;27;20037;-78
2024/01/28 01:28:31;;;;;;;23.67;16.27;;;1.50;99.90;;;;;;5048163;27;20049;-78
2024/01/28 01:31:02;;;;;;;23.50;16.27;;;1.40;99.90;;;;;;5021965;27;20071;-74
2024/01/28 01:33:28;;;;;;;21.50;15.68;;;1.40;99.90;;;;;;5039555;27;20559;-74
2024/01/28 01:35:53;;;;;;;25.30;16.25;;;1.40;99.90;;;;;;5024421;28;20108;-77
2024/01/28 01:38:20;;;;;;;27.33;16.88;;;1.40;99.90;;;;;;5033276;27;20065;-78
2024/01/28 01:40:46;;;;;;;23.98;16.75;;;1.40;99.90;;;;;;5029688;27;20395;-74
2024/01/28 01:43:13;;;;;;;25.50;16.20;;;1.50;99.90;;;;;;5024944;27;20060;-74
2024/01/28 01:45:40;;;;;;;29.08;17.08;;;1.40;99.90;;;;;;5024962;27;20494;-74
2024/01/28 01:48:13;;;;;;;29.50;15.38;;;1.50;99.90;;;;;;5047705;27;20136;-74
2024/01/28 01:50:40;;;;;;;27.83;16.77;;;1.50;99.90;;;;;;5037059;27;20503;-74
2024/01/28 01:53:08;;;;;;;25.25;16.25;;;1.50;99.90;;;;;;5024446;27;20050;-74
2024/01/28 01:55:35;;;;;;;25.70;16.55;;;1.60;99.90;;;;;;5045902;27;20076;-74
2024/01/28 01:58:05;;;;;;;29.02;16.13;;;1.60;99.90;;;;;;5037533;27;20041;-74
2024/01/28 02:00:34;;;;;;;30.98;17.10;;;1.60;99.90;;;;;;5052567;27;20048;-74
2024/01/28 02:03:03;;;;;;;23.38;16.58;;;1.60;99.90;;;;;;5024832;28;20048;-74
2024/01/28 02:05:29;;;;;;;23.35;16.40;;;1.60;99.90;;;;;;5025662;28;20531;-74
2024/01/28 02:07:55;;;;;;;24.90;15.63;;;1.60;99.90;;;;;;5041679;27;20087;-74
2024/01/28 02:10:22;;;;;;;25.73;16.10;;;1.70;99.90;;;;;;5045352;27;20105;-74
2024/01/28 02:12:49;;;;;;;23.88;16.13;;;1.70;99.90;;;;;;5013836;27;20389;-74
2024/01/28 02:15:15;;;;;;;25.00;15.90;;;1.70;99.90;;;;;;5022077;27;20395;-74
2024/01/28 02:17:42;;;;;;;23.63;16.35;;;1.70;99.90;;;;;;5025737;27;20048;-74
2024/01/28 02:20:08;;;;;;;25.85;17.00;;;1.70;99.90;;;;;;5040963;27;20108;-74
2024/01/28 02:22:33;;;;;;;22.60;16.27;;;1.70;99.90;;;;;;5039790;27;20198;-74
2024/01/28 02:24:59;;;;;;;25.40;15.57;;;1.80;99.90;;;;;;5039595;27;20048;-74
2024/01/28 02:27:25;;;;;;;28.27;16.00;;;1.80;99.90;;;;;;5039373;27;20132;-73
2024/01/28 02:29:51;;;;;;;26.42;15.75;;;1.80;99.90;;;;;;5025474;28;20495;-74
2024/01/28 02:32:18;;;;;;;24.90;15.38;;;1.80;99.90;;;;;;5043129;27;20044;-74
2024/01/28 02:34:44;;;;;;;23.77;14.52;;;1.80;99.90;;;;;;5039702;27;20500;-74
2024/01/28 02:37:10;;;;;;;22.40;15.93;;;1.90;99.90;;;;;;5029279;27;20123;-77
2024/01/28 02:39:37;;;;;;;23.23;15.02;;;1.90;99.90;;;;;;5022532;27;20491;-78
2024/01/28 02:42:03;;;;;;;23.08;14.43;;;1.90;99.90;;;;;;5041270;27;20376;-77
2024/01/28 02:44:29;;;;;;;20.33;15.05;;;1.90;99.90;;;;;;5028593;27;20621;-77
2024/01/28 02:46:55;;;;;;;22.70;14.20;;;2.00;99.90;;;;;;5024793;28;20076;-77
2024/01/28 02:49:24;;;;;;;25.95;14.50;;;2.00;99.90;;;;;;5024670;27;20184;-74
2024/01/28 02:51:50;;;;;;;22.88;13.43;;;2.00;99.90;;;;;;5053943;27;20148;-74
2024/01/28 02:54:17;;;;;;;20.77;13.90;;;2.00;99.90;;;;;;5026431;27;20045;-73
2024/01/28 02:56:43;;;;;;;23.33;15.23;;;2.00;99.90;;;;;;5028665;27;20049;-75
2024/01/28 02:59:10;;;;;;;23.40;14.15;;;2.10;99.90;;;;;;5044378;27;20045;-75
2024/01/28 03:01:46;;;;;;;24.48;14.50;;;2.10;99.90;;;;;;5020516;27;20045;-75
2024/01/28 03:04:11;;;;;;;23.58;14.95;;;2.10;99.90;;;;;;5007164;27;20139;-75
2024/01/28 03:06:37;;;;;;;24.13;14.60;;;2.10;99.90;;;;;;5044985;27;20169;-75
2024/01/28 03:09:04;;;;;;;24.15;14.48;;;2.00;99.90;;;;;;5040838;27;20048;-75
2024/01/28 03:11:33;;;;;;;22.90;13.63;;;2.10;99.90;;;;;;5029842;27;20567;-75
2024/01/28 03:13:59;;;;;;;22.05;14.23;;;2.00;99.90;;;;;;5022007;28;20591;-75
2024/01/28 03:16:28;;;;;;;21.20;13.70;;;2.10;99.90;;;;;;5024269;27;20436;-75
2024/01/28 03:18:53;;;;;;;23.02;13.88;;;2.10;99.90;;;;;;5040221;27;20045;-74
2024/01/28 03:21:19;;;;;;;20.13;12.98;;;2.00;99.90;;;;;;5031505;27;20037;-74
2024/01/28 03:23:46;;;;;;;25.15;13.95;;;2.10;99.90;;;;;;5021020;27;20091;-74
2024/01/28 03:26:12;;;;;;;20.13;13.75;;;2.10;99.90;;;;;;5020691;27;20521;-73
2024/01/28 03:28:38;;;;;;;18.70;12.23;;;2.10;99.90;;;;;;5040823;27;20039;-74
2024/01/28 03:31:03;;;;;;;23.27;13.52;;;2.00;99.90;;;;;;5039234;27;20029;-74
2024/01/28 03:33:29;;;;;;;21.88;13.50;;;2.00;99.90;;;;;;5036687;27;20140;-74
2024/01/28 03:35:56;;;;;;;21.73;12.50;;;2.10;99.90;;;;;;5043668;27;20037;-74
2024/01/28 03:38:22;;;;;;;20.70;13.65;;;2.10;99.90;;;;;;5046269;27;20047;-74
2024/01/28 03:40:47;;;;;;;20.83;12.65;;;2.10;99.90;;;;;;5030566;28;20286;-74
2024/01/28 03:43:13;;;;;;;20.80;13.63;;;2.10;99.90;;;;;;5037126;27;20041;-74
2024/01/28 03:45:39;;;;;;;20.08;13.38;;;2.10;99.90;;;;;;5018752;28;20368;-73
2024/01/28 03:48:05;;;;;;;19.05;12.27;;;2.00;99.90;;;;;;5038832;27;20037;-74
2024/01/28 03:50:34;;;;;;;22.52;12.70;;;2.00;99.90;;;;;;5036966;27;20041;-74
2024/01/28 03:53:04;;;;;;;20.33;12.77;;;2.00;99.90;;;;;;5043751;27;20037;-73
2024/01/28 03:55:33;;;;;;;19.05;13.25;;;2.00;99.90;;;;;;5026281;27;20487;-74
2024/01/28 03:57:58;;;;;;;17.08;11.57;;;2.00;99.90;;;;;;5039348;27;20044;-74
2024/01/28 04:00:28;;;;;;;18.02;11.90;;;2.00;99.90;;;;;;5038379;27;20075;-74
2024/01/28 04:02:56;;;;;;;20.23;12.15;;;2.00;99.90;;;;;;5136748;27;20135;-74
2024/01/28 04:05:23;;;;;;;21.92;13.23;;;2.00;99.90;;;;;;5021049;27;20041;-74
2024/01/28 04:07:49;;;;;;;22.55;11.98;;;2.00;99.90;;;;;;5025330;27;20064;-74
2024/01/28 04:10:16;;;;;;;23.80;12.30;;;2.00;99.90;;;;;;5040646;27;20068;-74
2024/01/28 04:12:42;;;;;;;19.80;12.02;;;2.00;99.90;;;;;;5041970;27;20033;-74
2024/01/28 04:15:08;;;;;;;22.20;11.82;;;1.90;99.90;;;;;;5026517;27;20071;-74
2024/01/28 04:17:34;;;;;;;19.02;12.68;;;1.90;99.90;;;;;;5033185;27;20083;-74
2024/01/28 04:20:04;;;;;;;20.35;12.05;;;1.90;99.90;;;;;;5026283;27;20479;-74
2024/01/28 04:22:33;;;;;;;23.37;11.40;;;1.90;99.90;;;;;;5026815;28;20033;-74
2024/01/28 04:24:58;;;;;;;20.38;11.75;;;1.90;99.90;;;;;;5020635;27;20049;-74
2024/01/28 04:27:24;;;;;;;21.73;13.10;;;1.80;99.90;;;;;;5035566;27;20080;-74
2024/01/28 04:29:50;;;;;;;21.88;13.18;;;1.80;99.90;;;;;;5036399;27;20387;-73
2024/01/28 04:32:24;;;;;;;21.50;12.35;;;1.80;99.90;;;;;;5036234;27;20419;-74
2024/01/28 04:34:50;;;;;;;21.10;11.73;;;1.80;99.90;;;;;;5038643;27;20105;-74
2024/01/28 04:37:16;;;;;;;19.80;12.82;;;1.80;99.90;;;;;;5022546;28;20411;-73
2024/01/28 04:39:42;;;;;;;21.45;12.57;;;1.70;99.90;;;;;;5036556;27;20355;-74
2024/01/28 04:42:08;;;;;;;19.27;12.10;;;1.70;99.90;;;;;;5036556;27;20087;-77
2024/01/28 04:44:33;;;;;;;24.35;13.15;;;1.70;99.90;;;;;;5023812;27;20083;-77
2024/01/28 04:46:59;;;;;;;19.88;12.05;;;1.70;99.90;;;;;;5042686;27;20069;-77
2024/01/28 04:49:25;;;;;;;17.35;12.05;;;1.70;99.90;;;;;;5034289;27;20386;-74
2024/01/28 04:51:51;;;;;;;21.38;12.65;;;1.70;99.90;;;;;;5025030;28;20081;-73
2024/01/28 04:54:18;;;;;;;19.58;11.75;;;1.60;99.90;;;;;;5037349;27;20056;-74
2024/01/28 04:56:44;;;;;;;18.88;11.77;;;1.60;99.90;;;;;;5035933;27;20041;-74
2024/01/28 04:59:10;;;;;;;16.65;12.38;;;1.60;99.90;;;;;;5037347;27;20037;-74
2024/01/28 05:01:35;;;;;;;19.92;12.75;;;1.60;99.90;;;;;;5031970;27;20076;-78
2024/01/28 05:04:01;;;;;;;22.17;12.88;;;1.50;99.90;;;;;;5029189;28;20041;-77
2024/01/28 05:06:34;;;;;;;21.52;12.32;;;1.50;99.90;;;;;;5026644;27;20159;-77
2024/01/28 05:09:04;;;;;;;17.95;11.40;;;1.60;99.90;;;;;;5126313;27;20076;-77
2024/01/28 05:11:33;;;;;;;17.92;12.70;;;1.50;99.90;;;;;;5026241;27;20098;-73
2024/01/28 05:13:59;;;;;;;19.95;12.40;;;1.50;99.90;;;;;;5045391;27;20052;-73
2024/01/28 05:16:25;;;;;;;18.92;11.50;;;1.50;99.90;;;;;;5046583;27;20395;-73
2024/01/28 05:18:51;;;;;;;17.98;11.20;;;1.50;99.90;;;;;;5044554;27;20052;-73
2024/01/28 05:21:18;;;;;;;20.70;11.63;;;1.50;99.90;;;;;;5039884;27;20357;-73
2024/01/28 05:23:47;;;;;;;19.98;11.07;;;1.50;99.90;;;;;;5037070;27;20240;-73
2024/01/28 05:26:14;;;;;;;20.95;11.75;;;1.50;99.90;;;;;;5029343;27;20045;-74
2024/01/28 05:28:40;;;;;;;16.67;10.80;;;1.50;99.90;;;;;;5028335;27;20501;-74
2024/01/28 05:31:07;;;;;;;18.55;12.07;;;1.40;99.90;;;;;;5031453;27;20068;-74
2024/01/28 05:33:37;;;;;;;24.23;11.95;;;1.40;99.90;;;;;;5040936;27;20048;-74
2024/01/28 05:36:15;;;;;;;22.20;12.75;;;1.30;99.90;;;;;;5042657;27;20074;-74
2024/01/28 05:38:42;;;;;;;24.42;12.68;;;1.30;99.90;;;;;;5026142;27;20503;-74
2024/01/28 05:41:08;;;;;;;27.20;13.20;;;1.30;99.90;;;;;;5046866;27;20041;-74
2024/01/28 05:43:34;;;;;;;23.30;13.30;;;1.20;99.90;;;;;;5030580;28;20072;-73
2024/01/28 05:46:03;;;;;;;21.98;12.52;;;1.20;99.90;;;;;;5041538;27;20049;-74
2024/01/28 05:48:29;;;;;;;21.30;13.13;;;1.20;99.90;;;;;;5043044;27;20076;-73
2024/01/28 05:50:55;;;;;;;23.67;13.43;;;1.10;99.90;;;;;;5025356;28;20511;-73
2024/01/28 05:53:23;;;;;;;21.50;12.82;;;1.10;99.90;;;;;;5035318;27;20139;-73
2024/01/28 05:55:50;;;;;;;18.08;12.50;;;1.00;99.90;;;;;;5018195;27;20396;-74
2024/01/28 05:58:16;;;;;;;22.42;14.40;;;1.00;99.90;;;;;;5038789;27;20063;-73
2024/01/28 06:00:41;;;;;;;20.55;12.32;;;1.00;99.90;;;;;;5032275;27;20460;-74
2024/01/28 06:03:07;;;;;;;18.55;13.88;;;1.10;99.90;;;;;;5035773;27;20044;-74
2024/01/28 06:05:33;;;;;;;20.95;12.15;;;1.00;99.90;;;;;;5021638;28;20164;-74
2024/01/28 06:07:59;;;;;;;22.05;13.73;;;1.00;99.90;;;;;;5036190;27;20365;-73
2024/01/28 06:10:24;;;;;;;24.70;13.02;;;0.90;99.90;;;;;;5036428;28;20040;-73
2024/01/28 06:12:50;;;;;;;20.92;13.48;;;0.90;99.90;;;;;;5022806;27;20357;-73
2024/01/28 06:15:16;;;;;;;18.55;12.95;;;0.90;99.90;;;;;;5026451;28;20057;-73
2024/01/28 06:17:42;;;;;;;21.23;13.07;;;0.80;99.90;;;;;;5022856;27;20044;-73
2024/01/28 06:20:08;;;;;;;18.20;12.75;;;0.90;99.90;;;;;;5031834;27;20076;-73
2024/01/28 06:22:34;;;;;;;16.00;11.95;;;0.80;99.90;;;;;;5033901;27;20497;-73
2024/01/28 06:25:01;;;;;;;15.97;12.27;;;0.80;99.90;;;;;;5038454;27;20038;-73
2024/01/28 06:27:27;;;;;;;20.90;12.63;;;0.80;99.90;;;;;;5048225;27;20506;-73
2024/01/28 06:29:53;;;;;;;22.13;13.50;;;1.00;99.90;;;;;;5025737;27;20410;-73
2024/01/28 06:32:21;;;;;;;21.63;12.52;;;0.90;99.90;;;;;;5026795;27;20041;-73
2024/01/28 06:34:47;;;;;;;18.77;12.50;;;0.90;99.90;;;;;;5039487;27;20053;-75
2024/01/28 06:37:12;;;;;;;18.63;13.25;;;0.80;99.90;;;;;;5025546;27;20401;-73
2024/01/28 06:39:38;;;;;;;20.73;13.07;;;0.80;99.90;;;;;;5063666;28;20092;-73
2024/01/28 06:42:04;;;;;;;20.08;13.07;;;0.90;99.90;;;;;;5020133;28;20042;-73
2024/01/28 06:44:33;;;;;;;18.57;12.23;;;0.80;99.90;;;;;;5025053;27;20037;-73
2024/01/28 06:46:59;;;;;;;17.67;12.13;;;0.70;99.90;;;;;;5031786;27;20037;-73
2024/01/28 06:49:25;;;;;;;22.73;13.98;;;0.70;99.90;;;;;;5033923;27;20045;-73
2024/01/28 06:51:52;;;;;;;18.40;12.80;;;0.60;99.90;;;;;;5015683;27;20496;-73
2024/01/28 06:54:19;;;;;;;20.50;12.95;;;0.60;99.90;;;;;;5034632;27;20041;-73
2024/01/28 06:56:45;;;;;;;22.25;13.07;;;0.50;99.90;;;;;;5025463;28;20123;-73
2024/01/28 06:59:11;;;;;;;24.27;12.32;;;0.50;99.90;;;;;;5033688;27;20078;-73
2024/01/28 07:01:37;;;;;;;14.18;11.55;;;0.60;99.90;;;;;;5033344;27;20091;-73
2024/01/28 07:04:03;;;;;;;18.73;12.30;;;0.50;99.90;;;;;;5042941;27;20052;-73
2024/01/28 07:06:28;;;;;;;18.85;12.60;;;0.50;99.90;;;;;;5026162;27;20048;-73
2024/01/28 07:08:54;;;;;;;19.03;13.07;;;0.50;99.90;;;;;;5036239;27;20041;-73
2024/01/28 07:11:20;;;;;;;16.52;12.25;;;0.40;99.90;;;;;;5041680;27;20039;-73
2024/01/28 07:13:46;;;;;;;19.57;13.27;;;0.50;99.90;;;;;;5026860;27;20496;-73
2024/01/28 07:16:12;;;;;;;19.83;13.63;;;0.40;99.90;;;;;;5033241;27;20052;-74
2024/01/28 07:18:39;;;;;;;20.10;12.93;;;0.40;99.90;;;;;;5029072;27;20076;-76
2024/01/28 07:21:05;;;;;;;22.63;13.15;;;0.40;99.90;;;;;;5040977;27;20495;-76
2024/01/28 07:23:34;;;;;;;20.50;14.32;;;0.40;99.90;;;;;;5051050;27;20442;-74
2024/01/28 07:26:00;;;;;;;20.00;14.17;;;0.30;99.90;;;;;;5029441;28;20064;-73
2024/01/28 07:28:28;;;;;;;21.40;13.75;;;0.30;99.90;;;;;;5034616;27;20048;-73
2024/01/28 07:30:54;;;;;;;19.23;13.95;;;0.30;99.90;;;;;;5039261;27;20037;-73
2024/01/28 07:33:20;;;;;;;25.13;14.77;;;0.30;99.90;;;;;;5036987;27;20039;-73
2024/01/28 07:35:45;;;;;;;20.17;14.80;;;0.30;99.90;;;;;;5044670;27;20036;-73
2024/01/28 07:38:12;;;;;;;20.80;14.47;;;0.50;99.90;;;;;;5037583;27;20044;-73
2024/01/28 07:40:38;;;;;;;22.27;15.60;;;0.30;99.90;;;;;;5021194;28;20458;-73
2024/01/28 07:43:03;;;;;;;19.57;14.07;;;0.40;99.90;;;;;;5027852;27;20052;-73
2024/01/28 07:45:29;;;;;;;21.60;14.73;;;0.30;99.90;;;;;;5036849;27;20038;-73
2024/01/28 07:47:55;;;;;;;16.57;13.53;;;0.30;99.90;;;;;;5024483;28;20391;-73
2024/01/28 07:50:21;;;;;;;20.23;15.00;;;0.30;99.90;;;;;;5054210;27;20512;-73
2024/01/28 07:52:47;;;;;;;20.50;15.03;;;0.30;99.90;;;;;;5026464;28;20084;-73
2024/01/28 07:55:13;;;;;;;20.02;15.07;;;0.40;99.90;;;;;;5038456;27;20053;-76
2024/01/28 07:57:41;;;;;;;21.42;14.50;;;0.40;99.90;;;;;;5042537;27;20049;-76
2024/01/28 08:00:10;;;;;;;19.20;13.43;;;0.50;99.90;;;;;;5040860;27;20142;-76
2024/01/28 08:02:35;;;;;;;19.92;14.25;;;0.50;99.90;;;;;;5038655;27;20124;-76
2024/01/28 08:05:01;;;;;;;22.13;14.30;;;0.60;99.90;;;;;;5024159;28;20041;-76
2024/01/28 08:07:27;;;;;;;20.30;13.73;;;0.60;99.90;;;;;;5039959;27;20037;-76
2024/01/28 08:09:53;;;;;;;22.58;14.95;;;0.70;99.90;;;;;;5022959;28;20396;-76
2024/01/28 08:12:19;;;;;;;20.27;15.30;;;0.70;99.90;;;;;;5037417;27;20041;-76
2024/01/28 08:14:47;;;;;;;21.40;13.67;;;0.70;99.90;;;;;;5018357;27;20499;-76
2024/01/28 08:17:13;;;;;;;19.60;13.32;;;0.80;99.90;;;;;;5038367;27;20045;-76
2024/01/28 08:19:40;;;;;;;22.90;14.03;;;0.90;99.90;;;;;;5053584;27;20396;-76
2024/01/28 08:22:05;;;;;;;21.30;13.00;;;0.90;99.90;;;;;;5027370;28;20493;-76
2024/01/28 08:24:34;;;;;;;18.08;13.23;;;1.00;99.90;;;;;;5048299;27;20079;-76
2024/01/28 08:27:09;;;;;;;17.58;13.07;;;1.00;99.90;;;;;;5045148;27;20050;-76
2024/01/28 08:29:37;;;;;;;17.70;13.35;;;1.10;99.90;;;;;;5024255;28;20079;-76
2024/01/28 08:32:04;;;;;;;17.35;12.80;;;1.10;99.90;;;;;;5024340;27;20047;-76
2024/01/28 08:34:29;;;;;;;18.45;12.93;;;1.20;99.90;;;;;;5036961;27;20517;-77
2024/01/28 08:36:55;;;;;;;20.73;12.95;;;1.20;99.90;;;;;;5023602;28;20034;-76
2024/01/28 08:39:21;;;;;;;17.33;11.68;;;1.30;99.90;;;;;;5023757;28;20083;-77
2024/01/28 08:41:47;;;;;;;17.20;12.10;;;1.30;99.90;;;;;;5040462;27;20084;-77
2024/01/28 08:44:14;;;;;;;16.67;12.15;;;1.40;99.90;;;;;;5020095;28;20062;-74
2024/01/28 08:46:40;;;;;;;20.63;13.13;;;1.40;99.90;;;;;;5038031;27;20060;-74
2024/01/28 08:49:06;;;;;;;20.03;12.13;;;1.40;99.90;;;;;;5039125;27;20045;-74
2024/01/28 08:51:32;;;;;;;15.68;11.05;;;1.60;99.90;;;;;;5046132;27;20065;-74
2024/01/28 08:53:58;;;;;;;20.73;11.90;;;1.50;99.90;;;;;;5037425;27;20569;-74
2024/01/28 08:56:23;;;;;;;23.13;11.00;;;1.60;99.90;;;;;;5029871;28;20041;-74
2024/01/28 08:58:49;;;;;;;16.00;10.75;;;1.60;99.90;;;;;;5023128;27;20257;-74
2024/01/28 09:01:15;;;;;;;16.85;10.88;;;1.70;99.90;;;;;;5039282;27;20039;-74
2024/01/28 09:03:41;;;;;;;13.85;9.90;;;1.70;99.90;;;;;;5035981;27;20064;-74
2024/01/28 09:06:07;;;;;;;17.63;10.77;;;1.80;99.90;;;;;;5039568;27;20113;-74
2024/01/28 09:08:33;;;;;;;14.55;10.05;;;1.80;99.90;;;;;;5019794;27;20472;-74
2024/01/28 09:11:00;;;;;;;16.67;9.77;;;1.90;99.90;;;;;;5028087;27;20084;-74
2024/01/28 09:13:26;;;;;;;16.30;9.85;;;2.00;99.90;;;;;;5033759;27;20534;-74
2024/01/28 09:15:53;;;;;;;13.43;9.73;;;2.00;99.90;;;;;;5022263;27;20051;-74
2024/01/28 09:18:19;;;;;;;13.00;9.18;;;2.00;99.90;;;;;;5040973;27;20052;-74
2024/01/28 09:20:45;;;;;;;14.30;9.73;;;2.00;99.90;;;;;;5036476;27;20049;-74
2024/01/28 09:23:11;;;;;;;16.25;9.70;;;2.10;99.90;;;;;;5040377;27;20084;-74
2024/01/28 09:25:37;;;;;;;12.48;9.05;;;2.10;99.90;;;;;;5037613;27;20075;-74
2024/01/28 09:28:07;;;;;;;16.10;8.85;;;2.20;99.90;;;;;;5038045;27;20037;-74
2024/01/28 09:30:36;;;;;;;13.07;8.38;;;2.40;99.90;;;;;;4977693;28;20125;-74
2024/01/28 09:33:03;;;;;;;12.98;8.57;;;2.40;99.90;;;;;;4965474;28;20500;-75
2024/01/28 09:35:32;;;;;;;13.00;8.90;;;2.50;99.90;;;;;;4972817;28;20515;-75
2024/01/28 09:37:57;;;;;;;12.77;8.25;;;2.50;99.90;;;;;;5070169;28;20108;-74
2024/01/28 09:40:23;;;;;;;12.40;8.38;;;2.50;99.90;;;;;;4975770;28;20471;-74
2024/01/28 09:43:04;;;;;;;15.20;8.63;;;2.50;99.90;;;;;;4975695;28;20078;-75
2024/01/28 09:45:33;;;;;;;13.63;8.05;;;2.50;99.90;;;;;;5050086;28;20526;-75
2024/01/28 09:47:59;;;;;;;12.10;7.72;;;2.60;99.90;;;;;;4972295;28;20114;-75
2024/01/28 09:50:28;;;;;;;14.25;7.78;;;2.70;99.90;;;;;;5061213;28;20149;-75
2024/01/28 09:52:54;;;;;;;12.52;7.85;;;2.80;99.90;;;;;;4983029;28;20050;-78
2024/01/28 09:55:20;;;;;;;13.77;7.47;;;2.90;99.90;;;;;;4975888;28;20046;-78
2024/01/28 09:57:46;;;;;;;12.48;7.65;;;2.90;99.90;;;;;;5060325;28;20144;-78
2024/01/28 10:00:13;;;;;;;15.30;8.25;;;3.00;99.90;;;;;;4982601;28;20046;-78
2024/01/28 10:02:40;;;;;;;14.05;7.78;;;3.00;99.90;;;;;;5039241;27;20063;-78
2024/01/28 10:05:14;;;;;;;14.93;7.40;;;3.10;99.90;;;;;;5027211;27;20124;-78
2024/01/28 10:07:47;;;;;;;11.27;7.38;;;3.20;99.90;;;;;;5039647;27;20048;-78
2024/01/28 10:10:18;;;;;;;9.20;6.45;;;3.30;99.90;;;;;;5048005;27;20045;-78
2024/01/28 10:12:49;;;;;;;11.15;6.60;;;3.50;99.90;;;;;;5051479;27;20507;-78
2024/01/28 10:15:16;;;;;;;14.13;6.95;;;3.50;99.90;;;;;;5028504;27;20132;-78
2024/01/28 10:17:47;;;;;;;11.60;6.82;;;3.70;99.90;;;;;;5043642;27;20070;-78
2024/01/28 10:20:25;;;;;;;11.82;6.57;;;3.70;99.90;;;;;;5024270;28;20677;-74
2024/01/28 10:22:52;;;;;;;10.95;6.68;;;3.80;99.90;;;;;;5042101;27;20615;-74
2024/01/28 10:25:19;;;;;;;9.18;6.22;;;3.80;99.90;;;;;;5037154;27;20049;-74
2024/01/28 10:27:47;;;;;;;12.68;7.10;;;3.90;99.90;;;;;;5040508;27;20044;-74
2024/01/28 10:30:15;;;;;;;12.55;6.25;;;4.00;99.90;;;;;;5034996;27;20045;-74
2024/01/28 10:32:44;;;;;;;11.15;6.80;;;4.00;99.90;;;;;;5025472;28;20056;-74
2024/01/28 10:35:11;;;;;;;10.40;6.75;;;4.10;99.90;;;;;;5039535;27;20033;-74
2024/01/28 10:37:38;;;;;;;9.63;5.80;;;4.10;99.90;;;;;;5040035;27;20048;-74
2024/01/28 10:40:08;;;;;;;10.05;5.72;;;4.20;99.90;;;;;;5029572;27;20292;-75
2024/01/28 10:42:39;;;;;;;10.32;6.03;;;4.30;99.90;;;;;;5015703;28;20049;-74
2024/01/28 10:45:07;;;;;;;10.07;5.60;;;4.40;99.90;;;;;;5032862;27;20072;-74
2024/01/28 10:47:38;;;;;;;9.35;5.32;;;4.40;99.90;;;;;;5032277;27;20176;-74
2024/01/28 10:50:07;;;;;;;11.27;6.32;;;4.50;99.90;;;;;;5034128;27;20503;-74
2024/01/28 10:52:37;;;;;;;10.68;5.93;;;4.60;99.90;;;;;;5025698;27;20069;-75
2024/01/28 10:55:04;;;;;;;8.70;5.10;;;4.70;99.90;;;;;;5034041;27;20551;-75
2024/01/28 10:57:35;;;;;;;9.30;5.20;;;4.80;99.90;;;;;;5039891;28;20041;-74
2024/01/28 11:00:05;;;;;;;10.13;5.25;;;4.80;99.90;;;;;;5044009;27;20045;-74
2024/01/28 11:02:33;;;;;;;11.35;5.03;;;4.90;99.90;;;;;;5039416;27;20045;-75
2024/01/28 11:04:58;;;;;;;9.75;5.30;;;5.00;99.90;;;;;;5026510;28;20045;-75
2024/01/28 11:07:25;;;;;;;9.93;5.00;;;5.00;99.90;;;;;;5033741;27;20052;-75
2024/01/28 11:09:54;;;;;;;9.95;4.90;;;5.10;99.90;;;;;;5039274;27;20049;-75
2024/01/28 11:12:20;;;;;;;9.38;5.03;;;5.10;99.90;;;;;;5022954;28;20058;-75
2024/01/28 11:14:46;;;;;;;10.40;5.32;;;5.20;99.90;;;;;;5031300;27;20037;-75
2024/01/28 11:17:13;;;;;;;8.95;4.80;;;5.20;99.90;;;;;;5038654;27;20053;-75
2024/01/28 11:19:39;;;;;;;9.82;4.65;;;5.30;99.90;;;;;;5034405;27;20045;-75
2024/01/28 11:22:18;;;;;;;12.15;4.90;;;5.40;99.90;;;;;;5023276;27;20530;-75
2024/01/28 11:24:53;;;;;;;9.23;4.88;;;5.40;99.90;;;;;;5043262;27;20503;-75
2024/01/28 11:27:20;;;;;;;8.52;4.53;;;5.50;99.90;;;;;;5025370;28;20105;-75
2024/01/28 11:29:47;;;;;;;8.93;4.97;;;5.40;99.90;;;;;;5025697;27;20128;-75
2024/01/28 11:32:16;;;;;;;8.52;4.78;;;5.60;99.90;;;;;;5013197;27;20140;-75
2024/01/28 11:34:46;;;;;;;9.30;4.63;;;5.60;99.90;;;;;;5035654;27;20395;-75
2024/01/28 11:37:21;;;;;;;8.95;4.47;;;5.70;99.90;;;;;;5040392;27;20069;-75
2024/01/28 11:39:48;;;;;;;8.77;4.60;;;5.80;99.90;;;;;;5030262;27;20566;-75
2024/01/28 11:42:14;;;;;;;10.88;4.75;;;5.80;99.90;;;;;;5036792;27;20057;-75
2024/01/28 11:44:42;;;;;;;8.80;3.92;;;5.80;99.90;;;;;;5026038;28;20034;-76
2024/01/28 11:47:19;;;;;;;8.23;4.50;;;5.90;99.90;;;;;;5022545;27;20045;-75
2024/01/28 11:49:46;;;;;;;7.63;4.80;;;5.90;99.90;;;;;;5035702;27;20142;-76
2024/01/28 11:52:11;;;;;;;9.35;4.18;;;6.00;99.90;;;;;;5012261;27;20051;-76
2024/01/28 11:54:37;;;;;;;9.07;4.40;;;6.00;99.90;;;;;;5023298;28;20045;-76
2024/01/28 11:57:06;;;;;;;8.48;4.53;;;6.10;99.90;;;;;;5031061;27;20052;-76
2024/01/28 11:59:33;;;;;;;7.93;4.40;;;6.20;99.90;;;;;;5119515;27;20407;-76
2024/01/28 12:02:03;;;;;;;8.23;4.07;;;6.20;99.90;;;;;;5029696;27;20041;-76
2024/01/28 12:04:34;;;;;;;6.83;3.83;;;6.40;99.90;;;;;;5030710;27;20487;-79
2024/01/28 12:07:03;;;;;;;5.95;3.38;;;6.40;99.90;;;;;;5026379;27;20660;-79
2024/01/28 12:09:29;;;;;;;6.78;3.72;;;6.50;99.90;;;;;;5061486;27;20047;-76
2024/01/28 12:11:55;;;;;;;6.95;3.30;;;6.50;99.90;;;;;;5027510;27;20037;-76
2024/01/28 12:14:22;;;;;;;7.50;4.13;;;6.60;99.90;;;;;;5022475;28;20567;-76
2024/01/28 12:16:48;;;;;;;7.97;3.75;;;6.70;99.90;;;;;;5024639;27;20319;-75
2024/01/28 12:19:13;;;;;;;8.02;3.33;;;6.70;99.90;;;;;;5039524;27;20045;-76
2024/01/28 12:21:40;;;;;;;7.32;3.67;;;6.70;99.90;;;;;;5039663;27;20052;-76
2024/01/28 12:24:09;;;;;;;7.88;3.40;;;6.80;99.90;;;;;;5021338;27;20045;-78
2024/01/28 12:26:35;;;;;;;6.60;3.08;;;6.80;99.90;;;;;;5024020;28;20074;-79
2024/01/28 12:29:04;;;;;;;8.38;3.42;;;6.80;99.90;;;;;;5027353;27;20411;-79
2024/01/28 12:31:33;;;;;;;6.80;2.95;;;6.90;99.90;;;;;;5038301;27;20414;-79
2024/01/28 12:33:59;;;;;;;6.60;2.88;;;7.00;99.90;;;;;;5035386;27;20102;-79
2024/01/28 12:36:25;;;;;;;5.75;2.88;;;7.00;99.90;;;;;;5038307;27;20045;-79
2024/01/28 12:38:50;;;;;;;6.35;3.00;;;7.10;99.90;;;;;;5034190;27;20036;-79